This is the latest recevied weather packets stored in our database for station/object DB0PET-13. If no packets are shown the sender has not sent any weather packets the latest 1 day(s).
| Time | Temp. | Humidity | Pressure | Rain* | Wind** | Luminosity | Snow |
|---|---|---|---|---|---|---|---|
| 1778082008 | 17.78° C | 60% | 1010 hPa | 0 mm | - | - | - |
| 1778077208 | 18.33° C | 60% | 1010 hPa | 0 mm | - | - | - |
| 1778076248 | 18.33° C | 62% | 1010.1 hPa | 0 mm | - | - | - |
| 1778075289 | 17.78° C | 61% | 1009.8 hPa | 0 mm | - | - | - |
| 1778073456 | 17.22° C | 63% | 1010 hPa | 0 mm | - | - | - |
| 1778073369 | 17.22° C | 63% | 1010 hPa | 0 mm | - | - | - |
| 1778069528 | 16.67° C | 66% | 1010.2 hPa | 0 mm | - | - | - |
| 1778068569 | 16.67° C | 66% | 1010.4 hPa | 0 mm | - | - | - |
| 1778065691 | 17.22° C | 63% | 1010.4 hPa | 0 mm | - | - | - |
| 1778061851 | 15.56° C | 72% | 1010.7 hPa | 0 mm | - | - | - |
| 1778059929 | 15° C | 75% | 1010.9 hPa | 0 mm | - | - | - |
| 1778058970 | 15.56° C | 76% | 1010.6 hPa | 0 mm | - | - | - |
| 1778055130 | 13.33° C | 86% | 1010.2 hPa | 0 mm | - | - | - |
| 1778052249 | 12.78° C | 93% | 1010.2 hPa | 0 mm | - | - | - |
| 1778051294 | 12.78° C | 94% | 1010.2 hPa | 0 mm | - | - | - |
| 1778050530 | 12.78° C | 94% | 1010.1 hPa | 0 mm | - | - | - |
| 1778050330 | 12.78° C | 94% | 1010.1 hPa | 0 mm | - | - | - |
| 1778048409 | 12.22° C | 99% | 1010.2 hPa | 0 mm | - | - | - |
| 1778047452 | 11.67° C | 99% | 1010.1 hPa | 0 mm | - | - | - |
| 1778046490 | 11.67° C | 99% | 1010.1 hPa | 0 mm | - | - | - |
| 1778043611 | 11.11° C | 99% | 1010.2 hPa | 0 mm | - | - | - |
| 1778042649 | 11.11° C | 99% | 1010.1 hPa | 0 mm | - | - | - |
| 1778038807 | 11.11° C | 99% | 1009.8 hPa | 0 mm | - | - | - |
| 1778037851 | 11.67° C | 99% | 1009.9 hPa | 0.25 mm | - | - | - |
| 1778036893 | 11.67° C | 99% | 1009.9 hPa | 0.51 mm | - | - | - |
* Rain latest hour (hover to see other rain measurements)
** Current wind speed in m/s (hover to see current wind gust speed)